createdAt,value
2023-01-15T00:02:51.916Z,2.08
2023-01-15T00:06:55.527Z,2.10
2023-01-15T00:11:03.974Z,2.25
2023-01-15T00:15:08.217Z,1.98
2023-01-15T00:19:13.125Z,1.55
2023-01-15T00:23:36.226Z,2.47
2023-01-15T00:27:39.890Z,2.05
2023-01-15T00:31:43.684Z,2.05
2023-01-15T00:35:46.718Z,2.92
2023-01-15T00:39:50.146Z,2.40
2023-01-15T00:43:54.792Z,2.75
2023-01-15T00:47:57.854Z,2.28
2023-01-15T00:52:01.252Z,3.38
2023-01-15T00:56:04.211Z,2.40
2023-01-15T01:00:12.542Z,2.53
2023-01-15T01:04:15.916Z,2.28
2023-01-15T01:08:19.467Z,2.17
2023-01-15T01:12:23.798Z,2.08
2023-01-15T01:16:33.784Z,2.00
2023-01-15T01:20:39.405Z,1.73
2023-01-15T01:24:42.662Z,2.17
2023-01-15T01:28:50.643Z,2.65
2023-01-15T01:32:55.317Z,1.98
2023-01-15T01:36:59.785Z,2.28
2023-01-15T01:41:02.817Z,1.38
2023-01-15T01:45:13.235Z,2.65
2023-01-15T01:49:18.132Z,3.47
2023-01-15T01:53:24.586Z,3.00
2023-01-15T01:57:27.773Z,2.33
2023-01-15T02:01:31.286Z,3.10
2023-01-15T02:05:39.336Z,2.90
2023-01-15T02:09:42.751Z,3.33
2023-01-15T02:13:53.585Z,2.88
2023-01-15T02:18:02.428Z,3.70
2023-01-15T02:22:15.864Z,2.97
2023-01-15T02:26:41.757Z,2.70
2023-01-15T02:30:49.154Z,3.45
2023-01-15T02:34:58.111Z,3.65
2023-01-15T02:39:06.046Z,4.35
2023-01-15T02:43:12.931Z,4.25
2023-01-15T02:47:18.776Z,4.68
2023-01-15T02:51:26.114Z,3.85
2023-01-15T02:55:33.548Z,3.60
2023-01-15T02:59:41.256Z,3.55
2023-01-15T03:03:50.394Z,3.08
2023-01-15T03:07:56.231Z,2.97
2023-01-15T03:12:10.360Z,3.25
2023-01-15T03:16:39.362Z,3.65
2023-01-15T03:20:51.046Z,3.47
2023-01-15T03:24:58.119Z,3.67
2023-01-15T03:29:03.958Z,3.20
2023-01-15T03:33:11.629Z,3.60
2023-01-15T03:37:15.648Z,3.38
2023-01-15T03:41:26.077Z,3.47
2023-01-15T03:45:38.103Z,3.75
2023-01-15T03:50:01.012Z,2.87
2023-01-15T03:58:15.548Z,2.97
2023-01-15T04:02:21.767Z,2.85
2023-01-15T04:06:28.201Z,2.65
2023-01-15T04:10:31.618Z,3.13
2023-01-15T04:14:35.952Z,2.67
2023-01-15T04:18:39.141Z,3.10
2023-01-15T04:22:43.479Z,2.60
2023-01-15T04:26:46.724Z,2.83
2023-01-15T04:30:52.760Z,3.20
2023-01-15T04:34:55.666Z,3.13
2023-01-15T04:39:00.394Z,2.80
2023-01-15T04:43:21.181Z,3.67
2023-01-15T04:47:24.255Z,3.28
2023-01-15T04:51:27.623Z,3.25
2023-01-15T04:55:33.291Z,3.45
2023-01-15T04:59:36.495Z,2.80
2023-01-15T05:03:39.904Z,3.65
2023-01-15T05:07:43.150Z,3.40
2023-01-15T05:11:47.917Z,2.80
2023-01-15T05:15:51.211Z,3.55
2023-01-15T05:19:54.160Z,2.15
2023-01-15T05:23:59.013Z,2.55
2023-01-15T05:28:07.109Z,2.67
2023-01-15T05:32:10.397Z,2.42
2023-01-15T05:36:15.149Z,3.03
2023-01-15T05:40:18.568Z,2.55
2023-01-15T05:44:25.747Z,3.08
2023-01-15T05:48:29.390Z,4.38
2023-01-15T05:52:32.689Z,3.47
2023-01-15T05:56:36.818Z,2.65
2023-01-15T06:00:41.284Z,3.75
2023-01-15T06:04:44.551Z,3.13
2023-01-15T06:08:47.623Z,3.33
2023-01-15T06:12:50.968Z,2.83
2023-01-15T06:16:55.450Z,3.85
2023-01-15T06:20:58.316Z,4.00
2023-01-15T06:25:01.484Z,3.15
2023-01-15T06:33:14.789Z,2.80
2023-01-15T06:37:17.905Z,3.25
2023-01-15T06:41:40.464Z,2.67
2023-01-15T06:46:01.085Z,2.17
2023-01-15T06:50:06.159Z,2.50
2023-01-15T06:54:09.319Z,4.20
2023-01-15T06:58:12.314Z,4.60
2023-01-15T07:02:15.514Z,3.85
2023-01-15T07:06:19.871Z,3.05
2023-01-15T07:10:23.108Z,3.15
2023-01-15T07:14:28.238Z,2.47
2023-01-15T07:18:33.930Z,2.13
2023-01-15T07:22:38.408Z,2.88
2023-01-15T07:26:42.331Z,1.88
2023-01-15T07:30:45.254Z,3.20
2023-01-15T07:34:48.548Z,2.03
2023-01-15T07:38:53.286Z,2.58
2023-01-15T07:43:14.285Z,9.90
2023-01-15T07:47:38.577Z,3.65
2023-01-15T07:51:41.445Z,2.42
2023-01-15T07:55:46.387Z,2.35
2023-01-15T07:59:49.412Z,1.50
2023-01-15T08:03:52.469Z,2.10
2023-01-15T08:07:55.886Z,2.47
2023-01-15T08:12:20.090Z,1.80
2023-01-15T08:16:23.225Z,2.30
2023-01-15T08:20:28.384Z,1.90
2023-01-15T08:24:31.334Z,3.25
2023-01-15T08:28:35.812Z,9.95
2023-01-15T08:32:39.182Z,2.53
2023-01-15T08:36:42.274Z,2.55
2023-01-15T08:45:15.276Z,2.63
2023-01-15T08:49:18.462Z,2.72
2023-01-15T08:53:22.108Z,2.58
2023-01-15T08:57:25.307Z,2.33
2023-01-15T09:01:29.925Z,2.15
2023-01-15T09:05:33.085Z,1.92
2023-01-15T09:09:36.021Z,2.20
2023-01-15T09:13:39.638Z,2.45
2023-01-15T09:17:44.587Z,3.25
2023-01-15T09:21:47.953Z,2.65
2023-01-15T09:25:55.184Z,2.15
2023-01-15T09:29:58.389Z,2.55
2023-01-15T09:34:03.077Z,1.90
2023-01-15T09:38:06.373Z,2.78
2023-01-15T09:42:25.412Z,2.75
2023-01-15T09:46:37.928Z,3.15
2023-01-15T09:50:57.051Z,2.78
2023-01-15T09:55:06.724Z,2.78
2023-01-15T09:59:22.092Z,2.55
2023-01-15T10:03:36.113Z,3.00
2023-01-15T10:07:51.029Z,10.38
2023-01-15T10:12:17.272Z,2.70
2023-01-15T10:16:24.046Z,2.60
2023-01-15T10:20:51.183Z,3.20
2023-01-15T10:24:59.081Z,3.15
2023-01-15T10:29:04.842Z,3.13
2023-01-15T10:33:23.124Z,3.20
2023-01-15T10:37:31.173Z,2.40
2023-01-15T10:41:51.033Z,3.72
2023-01-15T10:45:58.382Z,2.45
2023-01-15T10:50:02.790Z,2.60
2023-01-15T10:54:13.270Z,1.98
2023-01-15T10:58:35.081Z,2.78
2023-01-15T11:02:41.595Z,2.60
2023-01-15T11:06:44.872Z,2.25
2023-01-15T11:10:47.930Z,3.42
2023-01-15T11:15:10.217Z,2.17
2023-01-15T11:19:39.927Z,3.30
2023-01-15T11:23:43.505Z,2.90
2023-01-15T11:27:51.242Z,2.85
2023-01-15T11:31:55.843Z,2.97
2023-01-15T11:36:00.749Z,2.65
2023-01-15T11:40:06.165Z,2.83
2023-01-15T11:44:30.152Z,2.17
2023-01-15T11:49:02.301Z,3.40
2023-01-15T11:53:05.916Z,2.67
2023-01-15T11:57:09.659Z,2.92
2023-01-15T12:01:15.935Z,2.75
2023-01-15T12:05:22.539Z,2.35
2023-01-15T12:09:36.293Z,3.30
2023-01-15T12:13:48.913Z,2.75
2023-01-15T12:18:27.044Z,3.30
2023-01-15T12:22:56.049Z,3.13
2023-01-15T12:27:13.426Z,2.88
2023-01-15T12:31:21.187Z,2.67
2023-01-15T12:35:30.127Z,2.65
2023-01-15T12:39:42.636Z,2.65
2023-01-15T12:44:08.715Z,3.05
2023-01-15T12:48:21.220Z,3.47
2023-01-15T12:52:28.170Z,2.90
2023-01-15T12:56:44.735Z,3.20
2023-01-15T13:00:50.702Z,3.38
2023-01-15T13:04:59.667Z,3.63
2023-01-15T13:09:07.552Z,2.80
2023-01-15T13:13:18.460Z,3.28
2023-01-15T13:17:32.040Z,3.38
2023-01-15T13:21:38.513Z,3.88
2023-01-15T13:25:56.840Z,3.38
2023-01-15T13:30:16.744Z,3.15
2023-01-15T13:34:28.128Z,4.13
2023-01-15T13:38:34.009Z,4.68
2023-01-15T13:42:40.797Z,3.15
2023-01-15T13:46:46.899Z,3.38
2023-01-15T13:50:55.159Z,3.10
2023-01-15T13:55:01.412Z,2.58
2023-01-15T13:59:28.829Z,2.58
2023-01-15T14:03:40.340Z,1.85
2023-01-15T14:07:43.635Z,1.45
2023-01-15T14:12:04.604Z,1.60
2023-01-15T14:16:16.637Z,1.25
2023-01-15T14:20:38.327Z,1.50
2023-01-15T14:25:17.363Z,0.88
2023-01-15T14:29:43.853Z,0.90
2023-01-15T14:34:00.201Z,0.30
2023-01-15T14:38:09.270Z,0.20
2023-01-15T14:42:35.857Z,0.20
2023-01-15T14:46:42.231Z,0.30
2023-01-15T14:50:45.440Z,0.47
2023-01-15T14:54:50.592Z,0.30
2023-01-15T14:58:59.915Z,0.30
2023-01-15T15:03:04.895Z,0.20
2023-01-15T15:07:13.479Z,0.40
2023-01-15T15:11:43.553Z,0.17
2023-01-15T15:15:53.288Z,0.20
2023-01-15T15:20:08.897Z,0.30
2023-01-15T15:24:18.644Z,0.30
2023-01-15T15:28:23.267Z,0.47
2023-01-15T15:32:27.091Z,0.20
2023-01-15T15:36:33.984Z,0.43
2023-01-15T15:40:38.605Z,0.20
2023-01-15T15:45:08.752Z,0.30
2023-01-15T15:49:13.110Z,0.60
2023-01-15T15:53:18.747Z,0.32
2023-01-15T15:57:22.099Z,0.40
2023-01-15T16:01:26.982Z,0.20
2023-01-15T16:05:32.208Z,0.22
2023-01-15T16:09:35.463Z,0.40
2023-01-15T16:13:44.342Z,0.38
2023-01-15T16:17:50.309Z,0.45
2023-01-15T16:21:54.637Z,0.20
2023-01-15T16:26:02.815Z,0.30
2023-01-15T16:30:06.945Z,0.45
2023-01-15T16:34:19.471Z,0.40
2023-01-15T16:38:23.041Z,0.60
2023-01-15T16:42:29.102Z,0.30
2023-01-15T16:46:34.362Z,0.50
2023-01-15T16:50:40.007Z,0.40
2023-01-15T16:54:47.816Z,0.35
2023-01-15T16:58:50.841Z,0.30
2023-01-15T17:02:55.155Z,0.30
2023-01-15T17:07:08.331Z,0.40
2023-01-15T17:11:22.457Z,0.40
2023-01-15T17:15:37.488Z,0.30
2023-01-15T17:19:40.580Z,0.77
2023-01-15T17:23:46.775Z,0.50
2023-01-15T17:27:49.710Z,0.38
2023-01-15T17:31:53.211Z,0.70
2023-01-15T17:35:58.491Z,0.40
2023-01-15T17:40:03.533Z,0.38
2023-01-15T17:44:07.521Z,0.70
2023-01-15T17:48:11.073Z,0.30
2023-01-15T17:52:20.842Z,0.10
2023-01-15T17:56:42.514Z,0.32
2023-01-15T18:01:03.789Z,0.38
2023-01-15T18:05:30.996Z,0.20
2023-01-15T18:09:36.331Z,0.22
2023-01-15T18:13:42.227Z,0.38
2023-01-15T18:17:45.772Z,0.20
2023-01-15T18:21:51.884Z,0.20
2023-01-15T18:25:55.406Z,0.20
2023-01-15T18:34:05.346Z,0.30
2023-01-15T18:38:08.545Z,0.20
2023-01-15T18:42:29.616Z,0.35
2023-01-15T18:46:44.787Z,0.20
2023-01-15T18:50:50.877Z,0.57
2023-01-15T18:54:54.763Z,0.43
2023-01-15T18:58:58.460Z,0.50
2023-01-15T19:03:03.569Z,0.57
2023-01-15T19:07:10.530Z,0.55
2023-01-15T19:11:14.687Z,0.50
2023-01-15T19:15:37.926Z,0.70
2023-01-15T19:19:43.392Z,0.45
2023-01-15T19:23:48.070Z,0.52
2023-01-15T19:27:51.489Z,0.43
2023-01-15T19:31:54.452Z,0.47
2023-01-15T19:36:00.172Z,0.43
2023-01-15T19:40:04.938Z,0.38
2023-01-15T19:44:40.135Z,0.60
2023-01-15T19:49:00.824Z,0.30
2023-01-15T19:53:06.234Z,0.32
2023-01-15T19:57:10.890Z,0.40
2023-01-15T20:01:17.718Z,0.25
2023-01-15T20:05:21.934Z,0.43
2023-01-15T20:09:26.372Z,0.38
2023-01-15T20:13:48.172Z,0.20
2023-01-15T20:17:53.449Z,0.38
2023-01-15T20:21:56.723Z,0.52
2023-01-15T20:26:05.358Z,0.40
2023-01-15T20:30:13.464Z,0.50
2023-01-15T20:34:17.807Z,0.30
2023-01-15T20:38:22.325Z,0.43
2023-01-15T20:42:42.668Z,0.40
2023-01-15T20:46:47.691Z,0.28
2023-01-15T20:51:01.950Z,0.50
2023-01-15T20:55:05.194Z,0.47
2023-01-15T20:59:08.656Z,0.30
2023-01-15T21:03:13.575Z,0.20
2023-01-15T21:07:17.090Z,0.40
2023-01-15T21:11:22.242Z,0.30
2023-01-15T21:15:26.562Z,0.25
2023-01-15T21:19:31.783Z,0.30
2023-01-15T21:23:37.694Z,0.50
2023-01-15T21:27:41.204Z,0.20
2023-01-15T21:31:45.491Z,0.40
2023-01-15T21:35:50.047Z,0.17
2023-01-15T21:39:53.705Z,0.40
2023-01-15T21:44:14.168Z,0.30
2023-01-15T21:48:18.450Z,0.50
2023-01-15T21:52:24.011Z,0.20
2023-01-15T21:56:27.170Z,0.30
2023-01-15T22:00:30.379Z,0.40
2023-01-15T22:04:36.884Z,0.50
2023-01-15T22:08:41.436Z,0.25
2023-01-15T22:12:44.308Z,0.20
2023-01-15T22:16:48.304Z,0.65
2023-01-15T22:20:57.954Z,0.30
2023-01-15T22:25:02.932Z,0.75
2023-01-15T22:29:05.840Z,0.30
2023-01-15T22:33:09.042Z,0.30
2023-01-15T22:37:14.415Z,0.47
2023-01-15T22:41:39.864Z,0.73
2023-01-15T22:45:42.873Z,0.30
2023-01-15T22:49:46.398Z,0.38
2023-01-15T22:53:49.964Z,0.60
2023-01-15T22:57:54.554Z,0.50
2023-01-15T23:01:57.507Z,0.40
2023-01-15T23:06:06.234Z,0.60
2023-01-15T23:10:11.732Z,0.55
2023-01-15T23:14:17.145Z,0.43
2023-01-15T23:18:20.133Z,0.38
2023-01-15T23:22:23.279Z,0.25
2023-01-15T23:26:28.643Z,0.57
2023-01-15T23:30:33.180Z,0.30
2023-01-15T23:34:36.571Z,0.30
2023-01-15T23:38:40.097Z,0.80
2023-01-15T23:43:00.652Z,0.70
2023-01-15T23:47:05.110Z,0.50
2023-01-15T23:51:08.496Z,0.75
2023-01-15T23:55:11.750Z,0.73
2023-01-15T23:59:15.027Z,0.85
